< < Back
Terminal Aerodrome Forecast


Current Version              Previous Versions:   1  2  3  4  5  6  7  8  9  

Terminal Aerodrome Forecast

296
FTUS42 KCAE 282320
TAFAGS
TAF
KAGS 282320Z 2900/2924 VRB03KT P6SM BKN060 BKN150
     FM291000 00000KT 4SM BR BKN020
     FM291500 04008KT P6SM BKN035
     FM292100 06005KT P6SM SCT060 SCT250=



Latest METAR

452
SAUS70 KWBC 290500
MTRAGS
METAR KAGS 290453Z AUTO 35003KT 10SM CLR 24/23 A3009 RMK AO2 SLP188
T02390228 403670211


USA.gov is the U.S. government's official web portal to all federal, state and local government web resources and services.